sensor_id;sensor_type;location;lat;lon;timestamp;P1;durP1;ratioP1;P2;durP2;ratioP2
6053;SDS011;3055;50.886;14.814;2023-04-06T00:00:32;13.93;;;11.07;;
6053;SDS011;3055;50.886;14.814;2023-04-06T00:02:59;14.90;;;10.37;;
6053;SDS011;3055;50.886;14.814;2023-04-06T00:05:26;15.90;;;11.40;;
6053;SDS011;3055;50.886;14.814;2023-04-06T00:07:55;14.90;;;10.90;;
6053;SDS011;3055;50.886;14.814;2023-04-06T00:10:25;13.10;;;11.40;;
6053;SDS011;3055;50.886;14.814;2023-04-06T00:12:52;15.50;;;10.90;;
6053;SDS011;3055;50.886;14.814;2023-04-06T00:15:20;14.50;;;10.23;;
6053;SDS011;3055;50.886;14.814;2023-04-06T00:17:47;13.07;;;10.70;;
6053;SDS011;3055;50.886;14.814;2023-04-06T00:20:14;12.83;;;9.73;;
6053;SDS011;3055;50.886;14.814;2023-04-06T00:22:42;13.33;;;10.83;;
6053;SDS011;3055;50.886;14.814;2023-04-06T00:25:10;14.43;;;11.00;;
6053;SDS011;3055;50.886;14.814;2023-04-06T00:27:38;12.47;;;10.17;;
6053;SDS011;3055;50.886;14.814;2023-04-06T00:30:06;11.10;;;9.83;;
6053;SDS011;3055;50.886;14.814;2023-04-06T00:32:34;12.37;;;9.80;;
6053;SDS011;3055;50.886;14.814;2023-04-06T00:35:01;14.43;;;10.33;;
6053;SDS011;3055;50.886;14.814;2023-04-06T00:37:29;13.50;;;10.37;;
6053;SDS011;3055;50.886;14.814;2023-04-06T00:39:56;16.17;;;11.13;;
6053;SDS011;3055;50.886;14.814;2023-04-06T00:42:23;16.97;;;11.43;;
6053;SDS011;3055;50.886;14.814;2023-04-06T00:44:53;13.20;;;11.33;;
6053;SDS011;3055;50.886;14.814;2023-04-06T00:47:21;12.33;;;10.30;;
6053;SDS011;3055;50.886;14.814;2023-04-06T00:49:50;15.70;;;11.30;;
6053;SDS011;3055;50.886;14.814;2023-04-06T00:52:17;18.30;;;13.10;;
6053;SDS011;3055;50.886;14.814;2023-04-06T00:54:45;13.03;;;11.00;;
6053;SDS011;3055;50.886;14.814;2023-04-06T00:57:13;15.03;;;10.90;;
6053;SDS011;3055;50.886;14.814;2023-04-06T00:59:41;12.87;;;10.30;;
6053;SDS011;3055;50.886;14.814;2023-04-06T01:02:09;11.73;;;9.23;;
6053;SDS011;3055;50.886;14.814;2023-04-06T01:04:37;13.80;;;10.40;;
6053;SDS011;3055;50.886;14.814;2023-04-06T01:07:04;15.07;;;10.47;;
6053;SDS011;3055;50.886;14.814;2023-04-06T01:09:31;11.93;;;9.53;;
6053;SDS011;3055;50.886;14.814;2023-04-06T01:11:59;9.97;;;8.43;;
6053;SDS011;3055;50.886;14.814;2023-04-06T01:14:26;10.33;;;8.40;;
6053;SDS011;3055;50.886;14.814;2023-04-06T01:16:53;11.50;;;9.57;;
6053;SDS011;3055;50.886;14.814;2023-04-06T01:19:22;11.17;;;8.90;;
6053;SDS011;3055;50.886;14.814;2023-04-06T01:21:49;10.90;;;9.00;;
6053;SDS011;3055;50.886;14.814;2023-04-06T01:24:19;10.47;;;8.77;;
6053;SDS011;3055;50.886;14.814;2023-04-06T01:26:47;10.83;;;8.90;;
6053;SDS011;3055;50.886;14.814;2023-04-06T01:29:14;10.70;;;9.33;;
6053;SDS011;3055;50.886;14.814;2023-04-06T01:31:41;13.20;;;10.07;;
6053;SDS011;3055;50.886;14.814;2023-04-06T01:34:09;11.00;;;9.10;;
6053;SDS011;3055;50.886;14.814;2023-04-06T01:36:36;11.23;;;9.53;;
6053;SDS011;3055;50.886;14.814;2023-04-06T01:39:03;12.40;;;8.73;;
6053;SDS011;3055;50.886;14.814;2023-04-06T01:41:32;9.97;;;8.43;;
6053;SDS011;3055;50.886;14.814;2023-04-06T01:43:59;10.37;;;8.80;;
6053;SDS011;3055;50.886;14.814;2023-04-06T01:46:27;8.77;;;7.93;;
6053;SDS011;3055;50.886;14.814;2023-04-06T01:48:54;10.30;;;8.13;;
6053;SDS011;3055;50.886;14.814;2023-04-06T01:51:21;9.00;;;8.03;;
6053;SDS011;3055;50.886;14.814;2023-04-06T01:53:49;10.60;;;8.87;;
6053;SDS011;3055;50.886;14.814;2023-04-06T01:56:16;10.77;;;8.50;;
6053;SDS011;3055;50.886;14.814;2023-04-06T01:58:45;9.10;;;8.30;;
6053;SDS011;3055;50.886;14.814;2023-04-06T02:01:12;13.77;;;8.77;;
6053;SDS011;3055;50.886;14.814;2023-04-06T02:03:39;9.03;;;7.70;;
6053;SDS011;3055;50.886;14.814;2023-04-06T02:06:07;9.90;;;7.50;;
6053;SDS011;3055;50.886;14.814;2023-04-06T02:08:34;8.60;;;7.80;;
6053;SDS011;3055;50.886;14.814;2023-04-06T02:11:01;9.27;;;7.70;;
6053;SDS011;3055;50.886;14.814;2023-04-06T02:13:28;8.67;;;7.83;;
6053;SDS011;3055;50.886;14.814;2023-04-06T02:15:57;9.10;;;8.00;;
6053;SDS011;3055;50.886;14.814;2023-04-06T02:18:24;9.67;;;8.47;;
6053;SDS011;3055;50.886;14.814;2023-04-06T02:20:52;9.57;;;7.93;;
6053;SDS011;3055;50.886;14.814;2023-04-06T02:23:20;7.90;;;7.13;;
6053;SDS011;3055;50.886;14.814;2023-04-06T02:25:48;7.63;;;6.77;;
6053;SDS011;3055;50.886;14.814;2023-04-06T02:28:15;8.20;;;6.83;;
6053;SDS011;3055;50.886;14.814;2023-04-06T02:30:42;8.10;;;6.23;;
6053;SDS011;3055;50.886;14.814;2023-04-06T02:33:11;8.60;;;7.00;;
6053;SDS011;3055;50.886;14.814;2023-04-06T02:35:38;6.43;;;5.70;;
6053;SDS011;3055;50.886;14.814;2023-04-06T02:38:05;6.57;;;5.97;;
6053;SDS011;3055;50.886;14.814;2023-04-06T02:40:33;7.50;;;6.50;;
6053;SDS011;3055;50.886;14.814;2023-04-06T02:43:00;7.23;;;6.10;;
6053;SDS011;3055;50.886;14.814;2023-04-06T02:45:27;7.77;;;6.13;;
6053;SDS011;3055;50.886;14.814;2023-04-06T02:47:54;8.00;;;6.20;;
6053;SDS011;3055;50.886;14.814;2023-04-06T02:50:23;9.43;;;6.43;;
6053;SDS011;3055;50.886;14.814;2023-04-06T02:52:51;9.17;;;7.00;;
6053;SDS011;3055;50.886;14.814;2023-04-06T02:55:18;10.27;;;7.10;;
6053;SDS011;3055;50.886;14.814;2023-04-06T02:57:46;9.43;;;7.37;;
6053;SDS011;3055;50.886;14.814;2023-04-06T03:00:15;7.57;;;6.67;;
6053;SDS011;3055;50.886;14.814;2023-04-06T03:02:42;7.83;;;7.03;;
6053;SDS011;3055;50.886;14.814;2023-04-06T03:05:10;6.70;;;5.50;;
6053;SDS011;3055;50.886;14.814;2023-04-06T03:07:38;6.70;;;6.00;;
6053;SDS011;3055;50.886;14.814;2023-04-06T03:10:08;6.00;;;5.40;;
6053;SDS011;3055;50.886;14.814;2023-04-06T03:12:36;7.90;;;6.00;;
6053;SDS011;3055;50.886;14.814;2023-04-06T03:15:03;6.27;;;5.67;;
6053;SDS011;3055;50.886;14.814;2023-04-06T03:17:31;6.30;;;5.53;;
6053;SDS011;3055;50.886;14.814;2023-04-06T03:19:58;7.20;;;5.97;;
6053;SDS011;3055;50.886;14.814;2023-04-06T03:22:25;8.83;;;6.30;;
6053;SDS011;3055;50.886;14.814;2023-04-06T03:24:54;6.27;;;5.73;;
6053;SDS011;3055;50.886;14.814;2023-04-06T03:27:21;6.57;;;5.73;;
6053;SDS011;3055;50.886;14.814;2023-04-06T03:29:48;8.37;;;6.23;;
6053;SDS011;3055;50.886;14.814;2023-04-06T03:32:15;6.90;;;6.03;;
6053;SDS011;3055;50.886;14.814;2023-04-06T03:34:42;7.50;;;5.93;;
6053;SDS011;3055;50.886;14.814;2023-04-06T03:37:09;7.43;;;5.83;;
6053;SDS011;3055;50.886;14.814;2023-04-06T03:39:37;7.17;;;6.03;;
6053;SDS011;3055;50.886;14.814;2023-04-06T03:42:05;7.77;;;6.17;;
6053;SDS011;3055;50.886;14.814;2023-04-06T03:44:32;7.97;;;6.17;;
6053;SDS011;3055;50.886;14.814;2023-04-06T03:47:00;8.00;;;6.43;;
6053;SDS011;3055;50.886;14.814;2023-04-06T03:49:27;10.37;;;8.40;;
6053;SDS011;3055;50.886;14.814;2023-04-06T03:51:55;9.53;;;7.83;;
6053;SDS011;3055;50.886;14.814;2023-04-06T03:54:23;11.00;;;7.40;;
6053;SDS011;3055;50.886;14.814;2023-04-06T03:56:50;9.43;;;7.50;;
6053;SDS011;3055;50.886;14.814;2023-04-06T03:59:18;9.63;;;7.30;;
6053;SDS011;3055;50.886;14.814;2023-04-06T04:01:46;11.57;;;7.63;;
6053;SDS011;3055;50.886;14.814;2023-04-06T04:04:13;8.13;;;7.03;;
6053;SDS011;3055;50.886;14.814;2023-04-06T04:06:40;10.17;;;7.27;;
6053;SDS011;3055;50.886;14.814;2023-04-06T04:09:07;9.00;;;7.53;;
6053;SDS011;3055;50.886;14.814;2023-04-06T04:11:34;12.80;;;7.97;;
6053;SDS011;3055;50.886;14.814;2023-04-06T04:14:02;11.13;;;7.40;;
6053;SDS011;3055;50.886;14.814;2023-04-06T04:16:30;11.13;;;8.37;;
6053;SDS011;3055;50.886;14.814;2023-04-06T04:18:57;9.43;;;7.27;;
6053;SDS011;3055;50.886;14.814;2023-04-06T04:21:25;10.23;;;7.67;;
6053;SDS011;3055;50.886;14.814;2023-04-06T04:23:52;10.73;;;8.03;;
6053;SDS011;3055;50.886;14.814;2023-04-06T04:26:19;9.07;;;7.90;;
6053;SDS011;3055;50.886;14.814;2023-04-06T04:28:46;9.90;;;7.20;;
6053;SDS011;3055;50.886;14.814;2023-04-06T04:31:13;10.73;;;7.83;;
6053;SDS011;3055;50.886;14.814;2023-04-06T04:33:44;14.40;;;8.53;;
6053;SDS011;3055;50.886;14.814;2023-04-06T04:36:11;11.93;;;8.17;;
6053;SDS011;3055;50.886;14.814;2023-04-06T04:38:38;10.87;;;8.70;;
6053;SDS011;3055;50.886;14.814;2023-04-06T04:41:05;12.77;;;8.83;;
6053;SDS011;3055;50.886;14.814;2023-04-06T04:43:32;11.97;;;8.47;;
6053;SDS011;3055;50.886;14.814;2023-04-06T04:46:00;14.03;;;8.17;;
6053;SDS011;3055;50.886;14.814;2023-04-06T04:48:27;10.97;;;8.40;;
6053;SDS011;3055;50.886;14.814;2023-04-06T04:50:55;9.20;;;7.90;;
6053;SDS011;3055;50.886;14.814;2023-04-06T04:53:23;11.27;;;8.63;;
6053;SDS011;3055;50.886;14.814;2023-04-06T04:55:50;13.83;;;8.57;;
6053;SDS011;3055;50.886;14.814;2023-04-06T04:58:17;11.47;;;8.50;;
6053;SDS011;3055;50.886;14.814;2023-04-06T05:00:45;10.67;;;7.97;;
6053;SDS011;3055;50.886;14.814;2023-04-06T05:03:14;12.53;;;8.83;;
6053;SDS011;3055;50.886;14.814;2023-04-06T05:05:45;9.30;;;8.00;;
6053;SDS011;3055;50.886;14.814;2023-04-06T05:08:13;13.63;;;11.03;;
6053;SDS011;3055;50.886;14.814;2023-04-06T05:10:40;16.70;;;13.33;;
6053;SDS011;3055;50.886;14.814;2023-04-06T05:13:08;13.77;;;11.13;;
6053;SDS011;3055;50.886;14.814;2023-04-06T05:15:35;14.87;;;10.10;;
6053;SDS011;3055;50.886;14.814;2023-04-06T05:18:03;17.40;;;10.40;;
6053;SDS011;3055;50.886;14.814;2023-04-06T05:20:31;16.17;;;10.37;;
6053;SDS011;3055;50.886;14.814;2023-04-06T05:22:58;17.27;;;11.33;;
6053;SDS011;3055;50.886;14.814;2023-04-06T05:25:26;15.97;;;11.47;;
6053;SDS011;3055;50.886;14.814;2023-04-06T05:27:54;13.73;;;10.93;;
6053;SDS011;3055;50.886;14.814;2023-04-06T05:30:21;16.67;;;11.97;;
6053;SDS011;3055;50.886;14.814;2023-04-06T05:32:48;18.23;;;12.37;;
6053;SDS011;3055;50.886;14.814;2023-04-06T05:35:16;18.80;;;12.73;;
6053;SDS011;3055;50.886;14.814;2023-04-06T05:37:43;16.97;;;12.87;;
6053;SDS011;3055;50.886;14.814;2023-04-06T05:40:11;18.33;;;12.50;;
6053;SDS011;3055;50.886;14.814;2023-04-06T05:42:40;16.00;;;12.37;;
6053;SDS011;3055;50.886;14.814;2023-04-06T05:45:08;19.13;;;13.67;;
6053;SDS011;3055;50.886;14.814;2023-04-06T05:47:41;17.50;;;12.47;;
6053;SDS011;3055;50.886;14.814;2023-04-06T05:50:09;17.77;;;12.37;;
6053;SDS011;3055;50.886;14.814;2023-04-06T05:52:37;16.23;;;10.83;;
6053;SDS011;3055;50.886;14.814;2023-04-06T05:55:06;15.50;;;11.77;;
6053;SDS011;3055;50.886;14.814;2023-04-06T05:57:34;16.13;;;10.83;;
6053;SDS011;3055;50.886;14.814;2023-04-06T06:00:03;15.93;;;10.27;;
6053;SDS011;3055;50.886;14.814;2023-04-06T06:02:31;14.73;;;10.67;;
6053;SDS011;3055;50.886;14.814;2023-04-06T06:04:58;15.80;;;11.57;;
6053;SDS011;3055;50.886;14.814;2023-04-06T06:07:26;14.27;;;11.10;;
6053;SDS011;3055;50.886;14.814;2023-04-06T06:09:56;16.90;;;11.73;;
6053;SDS011;3055;50.886;14.814;2023-04-06T06:12:23;16.90;;;12.73;;
6053;SDS011;3055;50.886;14.814;2023-04-06T06:14:50;14.70;;;11.90;;
6053;SDS011;3055;50.886;14.814;2023-04-06T06:17:19;16.50;;;11.47;;
6053;SDS011;3055;50.886;14.814;2023-04-06T06:19:46;15.10;;;11.40;;
6053;SDS011;3055;50.886;14.814;2023-04-06T06:22:13;14.63;;;10.47;;
6053;SDS011;3055;50.886;14.814;2023-04-06T06:24:41;14.33;;;9.73;;
6053;SDS011;3055;50.886;14.814;2023-04-06T06:27:08;17.60;;;11.03;;
6053;SDS011;3055;50.886;14.814;2023-04-06T06:29:35;13.37;;;10.27;;
6053;SDS011;3055;50.886;14.814;2023-04-06T06:32:02;13.33;;;10.43;;
6053;SDS011;3055;50.886;14.814;2023-04-06T06:34:31;13.63;;;9.83;;
6053;SDS011;3055;50.886;14.814;2023-04-06T06:36:58;15.03;;;10.30;;
6053;SDS011;3055;50.886;14.814;2023-04-06T06:39:25;12.67;;;9.77;;
6053;SDS011;3055;50.886;14.814;2023-04-06T06:41:53;13.17;;;9.60;;
6053;SDS011;3055;50.886;14.814;2023-04-06T06:44:20;12.37;;;9.67;;
6053;SDS011;3055;50.886;14.814;2023-04-06T06:46:47;9.27;;;8.23;;
6053;SDS011;3055;50.886;14.814;2023-04-06T06:49:15;11.23;;;8.43;;
6053;SDS011;3055;50.886;14.814;2023-04-06T06:51:43;12.30;;;9.47;;
6053;SDS011;3055;50.886;14.814;2023-04-06T06:54:11;14.03;;;8.90;;
6053;SDS011;3055;50.886;14.814;2023-04-06T06:56:39;10.67;;;8.60;;
6053;SDS011;3055;50.886;14.814;2023-04-06T06:59:06;10.87;;;8.83;;
6053;SDS011;3055;50.886;14.814;2023-04-06T07:01:33;16.33;;;9.63;;
6053;SDS011;3055;50.886;14.814;2023-04-06T07:04:00;11.87;;;9.47;;
6053;SDS011;3055;50.886;14.814;2023-04-06T07:06:28;12.27;;;8.90;;
6053;SDS011;3055;50.886;14.814;2023-04-06T07:08:56;13.23;;;8.53;;
6053;SDS011;3055;50.886;14.814;2023-04-06T07:11:24;12.33;;;8.40;;
6053;SDS011;3055;50.886;14.814;2023-04-06T07:13:51;12.97;;;8.97;;
6053;SDS011;3055;50.886;14.814;2023-04-06T07:16:18;13.37;;;9.17;;
6053;SDS011;3055;50.886;14.814;2023-04-06T07:18:45;10.10;;;8.60;;
6053;SDS011;3055;50.886;14.814;2023-04-06T07:21:12;11.20;;;7.60;;
6053;SDS011;3055;50.886;14.814;2023-04-06T07:23:40;12.33;;;8.53;;
6053;SDS011;3055;50.886;14.814;2023-04-06T07:26:08;10.67;;;7.67;;
6053;SDS011;3055;50.886;14.814;2023-04-06T07:28:35;12.90;;;7.87;;
6053;SDS011;3055;50.886;14.814;2023-04-06T07:31:03;11.90;;;8.40;;
6053;SDS011;3055;50.886;14.814;2023-04-06T07:33:31;8.93;;;7.80;;
6053;SDS011;3055;50.886;14.814;2023-04-06T07:35:59;10.77;;;8.30;;
6053;SDS011;3055;50.886;14.814;2023-04-06T07:38:26;16.67;;;10.30;;
6053;SDS011;3055;50.886;14.814;2023-04-06T07:40:53;15.83;;;9.50;;
6053;SDS011;3055;50.886;14.814;2023-04-06T07:43:22;12.33;;;8.30;;
6053;SDS011;3055;50.886;14.814;2023-04-06T07:45:49;16.00;;;8.77;;
6053;SDS011;3055;50.886;14.814;2023-04-06T07:48:16;9.77;;;7.53;;
6053;SDS011;3055;50.886;14.814;2023-04-06T07:50:43;13.77;;;10.80;;
6053;SDS011;3055;50.886;14.814;2023-04-06T07:53:11;23.17;;;14.03;;
6053;SDS011;3055;50.886;14.814;2023-04-06T07:55:38;26.97;;;15.50;;
6053;SDS011;3055;50.886;14.814;2023-04-06T07:58:05;19.87;;;12.83;;
6053;SDS011;3055;50.886;14.814;2023-04-06T08:00:34;26.47;;;16.67;;
6053;SDS011;3055;50.886;14.814;2023-04-06T08:03:01;24.97;;;15.23;;
6053;SDS011;3055;50.886;14.814;2023-04-06T08:05:28;26.40;;;15.60;;
6053;SDS011;3055;50.886;14.814;2023-04-06T08:07:56;25.17;;;15.27;;
6053;SDS011;3055;50.886;14.814;2023-04-06T08:10:23;20.53;;;13.87;;
6053;SDS011;3055;50.886;14.814;2023-04-06T08:12:50;21.37;;;13.53;;
6053;SDS011;3055;50.886;14.814;2023-04-06T08:15:18;16.50;;;12.07;;
6053;SDS011;3055;50.886;14.814;2023-04-06T08:17:47;13.90;;;10.10;;
6053;SDS011;3055;50.886;14.814;2023-04-06T08:20:14;12.47;;;8.03;;
6053;SDS011;3055;50.886;14.814;2023-04-06T08:22:41;12.73;;;9.07;;
6053;SDS011;3055;50.886;14.814;2023-04-06T08:25:08;13.77;;;9.17;;
6053;SDS011;3055;50.886;14.814;2023-04-06T08:27:36;10.57;;;7.80;;
6053;SDS011;3055;50.886;14.814;2023-04-06T08:30:03;10.47;;;7.60;;
6053;SDS011;3055;50.886;14.814;2023-04-06T08:32:30;9.20;;;7.70;;
6053;SDS011;3055;50.886;14.814;2023-04-06T08:34:59;10.03;;;7.60;;
6053;SDS011;3055;50.886;14.814;2023-04-06T08:37:26;11.53;;;7.97;;
6053;SDS011;3055;50.886;14.814;2023-04-06T08:39:54;10.33;;;7.30;;
6053;SDS011;3055;50.886;14.814;2023-04-06T08:42:21;10.87;;;7.23;;
6053;SDS011;3055;50.886;14.814;2023-04-06T08:44:51;8.70;;;5.47;;
6053;SDS011;3055;50.886;14.814;2023-04-06T08:47:20;7.00;;;4.20;;
6053;SDS011;3055;50.886;14.814;2023-04-06T08:49:47;6.57;;;4.63;;
6053;SDS011;3055;50.886;14.814;2023-04-06T08:52:17;7.20;;;5.00;;
6053;SDS011;3055;50.886;14.814;2023-04-06T08:54:45;8.40;;;5.20;;
6053;SDS011;3055;50.886;14.814;2023-04-06T08:57:12;5.93;;;3.50;;
6053;SDS011;3055;50.886;14.814;2023-04-06T08:59:39;4.03;;;3.47;;
6053;SDS011;3055;50.886;14.814;2023-04-06T09:02:07;5.87;;;4.00;;
6053;SDS011;3055;50.886;14.814;2023-04-06T09:04:42;6.93;;;4.27;;
6053;SDS011;3055;50.886;14.814;2023-04-06T09:07:11;3.97;;;3.40;;
6053;SDS011;3055;50.886;14.814;2023-04-06T09:09:40;3.23;;;2.63;;
6053;SDS011;3055;50.886;14.814;2023-04-06T09:12:21;7.83;;;3.80;;
6053;SDS011;3055;50.886;14.814;2023-04-06T09:14:49;10.17;;;4.07;;
6053;SDS011;3055;50.886;14.814;2023-04-06T09:17:19;7.13;;;3.23;;
6053;SDS011;3055;50.886;14.814;2023-04-06T09:19:47;7.67;;;3.70;;
6053;SDS011;3055;50.886;14.814;2023-04-06T09:22:15;4.43;;;3.70;;
6053;SDS011;3055;50.886;14.814;2023-04-06T09:24:45;7.10;;;3.40;;
6053;SDS011;3055;50.886;14.814;2023-04-06T09:27:13;6.03;;;4.13;;
6053;SDS011;3055;50.886;14.814;2023-04-06T09:29:41;6.07;;;3.87;;
6053;SDS011;3055;50.886;14.814;2023-04-06T09:32:09;4.47;;;3.43;;
6053;SDS011;3055;50.886;14.814;2023-04-06T09:34:41;4.90;;;3.60;;
6053;SDS011;3055;50.886;14.814;2023-04-06T09:37:13;4.67;;;3.30;;
6053;SDS011;3055;50.886;14.814;2023-04-06T09:39:41;4.43;;;3.50;;
6053;SDS011;3055;50.886;14.814;2023-04-06T09:42:11;4.33;;;3.10;;
6053;SDS011;3055;50.886;14.814;2023-04-06T09:44:49;3.43;;;2.80;;
6053;SDS011;3055;50.886;14.814;2023-04-06T09:47:16;4.27;;;3.03;;
6053;SDS011;3055;50.886;14.814;2023-04-06T09:49:44;4.00;;;3.60;;
6053;SDS011;3055;50.886;14.814;2023-04-06T09:52:13;4.10;;;3.70;;
6053;SDS011;3055;50.886;14.814;2023-04-06T09:54:42;3.57;;;3.13;;
6053;SDS011;3055;50.886;14.814;2023-04-06T09:57:15;3.17;;;2.83;;
6053;SDS011;3055;50.886;14.814;2023-04-06T09:59:50;5.33;;;3.17;;
6053;SDS011;3055;50.886;14.814;2023-04-06T10:02:24;4.07;;;3.27;;
6053;SDS011;3055;50.886;14.814;2023-04-06T10:04:59;3.67;;;3.37;;
6053;SDS011;3055;50.886;14.814;2023-04-06T10:07:34;7.80;;;3.53;;
6053;SDS011;3055;50.886;14.814;2023-04-06T10:10:05;5.27;;;3.27;;
6053;SDS011;3055;50.886;14.814;2023-04-06T10:12:34;3.47;;;3.17;;
6053;SDS011;3055;50.886;14.814;2023-04-06T10:15:02;3.87;;;3.03;;
6053;SDS011;3055;50.886;14.814;2023-04-06T10:17:30;4.60;;;3.03;;
6053;SDS011;3055;50.886;14.814;2023-04-06T10:19:59;3.57;;;2.83;;
6053;SDS011;3055;50.886;14.814;2023-04-06T10:22:32;3.20;;;2.90;;
6053;SDS011;3055;50.886;14.814;2023-04-06T10:25:05;3.97;;;2.73;;
6053;SDS011;3055;50.886;14.814;2023-04-06T10:27:35;2.93;;;2.63;;
6053;SDS011;3055;50.886;14.814;2023-04-06T10:30:03;4.37;;;2.97;;
6053;SDS011;3055;50.886;14.814;2023-04-06T10:32:32;3.37;;;2.80;;
6053;SDS011;3055;50.886;14.814;2023-04-06T10:35:10;3.00;;;2.23;;
6053;SDS011;3055;50.886;14.814;2023-04-06T10:37:51;3.07;;;2.80;;
6053;SDS011;3055;50.886;14.814;2023-04-06T10:40:20;3.27;;;2.57;;
6053;SDS011;3055;50.886;14.814;2023-04-06T10:42:51;3.47;;;2.80;;
6053;SDS011;3055;50.886;14.814;2023-04-06T10:45:19;2.50;;;2.30;;
6053;SDS011;3055;50.886;14.814;2023-04-06T10:47:47;3.70;;;2.63;;
6053;SDS011;3055;50.886;14.814;2023-04-06T10:50:14;2.90;;;2.60;;
6053;SDS011;3055;50.886;14.814;2023-04-06T10:52:43;3.33;;;3.03;;
6053;SDS011;3055;50.886;14.814;2023-04-06T10:55:12;2.83;;;2.50;;
6053;SDS011;3055;50.886;14.814;2023-04-06T10:57:40;4.00;;;2.30;;
6053;SDS011;3055;50.886;14.814;2023-04-06T11:00:11;2.67;;;2.37;;
6053;SDS011;3055;50.886;14.814;2023-04-06T11:02:39;4.90;;;2.83;;
6053;SDS011;3055;50.886;14.814;2023-04-06T11:05:07;2.80;;;2.50;;
6053;SDS011;3055;50.886;14.814;2023-04-06T11:07:34;2.33;;;2.13;;
6053;SDS011;3055;50.886;14.814;2023-04-06T11:10:01;3.97;;;2.50;;
6053;SDS011;3055;50.886;14.814;2023-04-06T11:12:29;4.97;;;2.57;;
6053;SDS011;3055;50.886;14.814;2023-04-06T11:14:57;4.10;;;3.70;;
6053;SDS011;3055;50.886;14.814;2023-04-06T11:17:30;3.20;;;2.90;;
6053;SDS011;3055;50.886;14.814;2023-04-06T11:19:58;4.53;;;2.87;;
6053;SDS011;3055;50.886;14.814;2023-04-06T11:22:27;3.03;;;2.73;;
6053;SDS011;3055;50.886;14.814;2023-04-06T11:25:04;6.40;;;5.90;;
6053;SDS011;3055;50.886;14.814;2023-04-06T11:27:31;4.80;;;4.20;;
6053;SDS011;3055;50.886;14.814;2023-04-06T11:29:59;3.60;;;3.30;;
6053;SDS011;3055;50.886;14.814;2023-04-06T11:32:27;3.70;;;2.63;;
6053;SDS011;3055;50.886;14.814;2023-04-06T11:34:57;2.87;;;2.67;;
6053;SDS011;3055;50.886;14.814;2023-04-06T11:37:26;3.20;;;2.80;;
6053;SDS011;3055;50.886;14.814;2023-04-06T11:39:54;2.83;;;2.53;;
6053;SDS011;3055;50.886;14.814;2023-04-06T11:42:22;2.43;;;2.30;;
6053;SDS011;3055;50.886;14.814;2023-04-06T11:44:51;2.50;;;2.30;;
6053;SDS011;3055;50.886;14.814;2023-04-06T11:47:20;2.40;;;2.20;;
6053;SDS011;3055;50.886;14.814;2023-04-06T11:49:54;3.20;;;2.80;;
6053;SDS011;3055;50.886;14.814;2023-04-06T11:52:31;2.73;;;2.40;;
6053;SDS011;3055;50.886;14.814;2023-04-06T11:54:58;3.57;;;2.50;;
6053;SDS011;3055;50.886;14.814;2023-04-06T11:57:36;3.33;;;2.60;;
6053;SDS011;3055;50.886;14.814;2023-04-06T12:00:03;2.93;;;2.60;;
6053;SDS011;3055;50.886;14.814;2023-04-06T12:02:31;3.27;;;2.80;;
6053;SDS011;3055;50.886;14.814;2023-04-06T12:05:00;4.00;;;3.27;;
6053;SDS011;3055;50.886;14.814;2023-04-06T12:07:28;3.80;;;2.57;;
6053;SDS011;3055;50.886;14.814;2023-04-06T12:09:55;3.53;;;2.43;;
6053;SDS011;3055;50.886;14.814;2023-04-06T12:12:22;2.60;;;2.40;;
6053;SDS011;3055;50.886;14.814;2023-04-06T12:14:50;2.70;;;2.50;;
6053;SDS011;3055;50.886;14.814;2023-04-06T12:17:18;2.93;;;2.60;;
6053;SDS011;3055;50.886;14.814;2023-04-06T12:19:45;2.70;;;2.40;;
6053;SDS011;3055;50.886;14.814;2023-04-06T12:22:14;3.00;;;2.70;;
6053;SDS011;3055;50.886;14.814;2023-04-06T12:24:41;3.33;;;3.10;;
6053;SDS011;3055;50.886;14.814;2023-04-06T12:27:08;3.37;;;3.07;;
6053;SDS011;3055;50.886;14.814;2023-04-06T12:29:36;2.73;;;2.40;;
6053;SDS011;3055;50.886;14.814;2023-04-06T12:32:04;4.07;;;3.20;;
6053;SDS011;3055;50.886;14.814;2023-04-06T12:34:31;3.73;;;3.00;;
6053;SDS011;3055;50.886;14.814;2023-04-06T12:36:59;3.10;;;2.80;;
6053;SDS011;3055;50.886;14.814;2023-04-06T12:39:28;4.40;;;2.97;;
6053;SDS011;3055;50.886;14.814;2023-04-06T12:41:56;3.13;;;2.83;;
6053;SDS011;3055;50.886;14.814;2023-04-06T12:44:23;3.50;;;3.00;;
6053;SDS011;3055;50.886;14.814;2023-04-06T12:46:50;3.23;;;2.93;;
6053;SDS011;3055;50.886;14.814;2023-04-06T12:49:17;3.63;;;3.27;;
6053;SDS011;3055;50.886;14.814;2023-04-06T12:51:45;2.77;;;2.57;;
6053;SDS011;3055;50.886;14.814;2023-04-06T12:54:13;4.13;;;3.27;;
6053;SDS011;3055;50.886;14.814;2023-04-06T12:56:41;4.00;;;2.97;;
6053;SDS011;3055;50.886;14.814;2023-04-06T12:59:09;3.47;;;2.90;;
6053;SDS011;3055;50.886;14.814;2023-04-06T13:01:36;4.07;;;3.17;;
6053;SDS011;3055;50.886;14.814;2023-04-06T13:04:03;3.30;;;3.00;;
6053;SDS011;3055;50.886;14.814;2023-04-06T13:06:31;3.47;;;2.93;;
6053;SDS011;3055;50.886;14.814;2023-04-06T13:08:58;4.63;;;2.83;;
6053;SDS011;3055;50.886;14.814;2023-04-06T13:11:25;3.10;;;2.90;;
6053;SDS011;3055;50.886;14.814;2023-04-06T13:13:57;3.20;;;2.90;;
6053;SDS011;3055;50.886;14.814;2023-04-06T13:16:24;4.07;;;3.20;;
6053;SDS011;3055;50.886;14.814;2023-04-06T13:18:51;4.27;;;3.23;;
6053;SDS011;3055;50.886;14.814;2023-04-06T13:21:18;4.63;;;4.07;;
6053;SDS011;3055;50.886;14.814;2023-04-06T13:23:46;3.23;;;2.93;;
6053;SDS011;3055;50.886;14.814;2023-04-06T13:26:13;3.63;;;3.33;;
6053;SDS011;3055;50.886;14.814;2023-04-06T13:28:41;3.10;;;2.80;;
6053;SDS011;3055;50.886;14.814;2023-04-06T13:31:10;3.60;;;3.30;;
6053;SDS011;3055;50.886;14.814;2023-04-06T13:33:37;3.23;;;2.93;;
6053;SDS011;3055;50.886;14.814;2023-04-06T13:36:06;3.23;;;2.93;;
6053;SDS011;3055;50.886;14.814;2023-04-06T13:38:33;4.63;;;3.60;;
6053;SDS011;3055;50.886;14.814;2023-04-06T13:41:02;4.03;;;3.33;;
6053;SDS011;3055;50.886;14.814;2023-04-06T13:43:29;3.33;;;2.80;;
6053;SDS011;3055;50.886;14.814;2023-04-06T13:45:57;6.43;;;4.03;;
6053;SDS011;3055;50.886;14.814;2023-04-06T13:48:27;3.33;;;3.00;;
6053;SDS011;3055;50.886;14.814;2023-04-06T13:50:54;3.90;;;3.03;;
6053;SDS011;3055;50.886;14.814;2023-04-06T13:53:21;3.70;;;3.30;;
6053;SDS011;3055;50.886;14.814;2023-04-06T13:55:52;3.43;;;3.13;;
6053;SDS011;3055;50.886;14.814;2023-04-06T13:58:20;3.50;;;3.20;;
6053;SDS011;3055;50.886;14.814;2023-04-06T14:00:49;3.60;;;3.30;;
6053;SDS011;3055;50.886;14.814;2023-04-06T14:03:17;2.77;;;2.57;;
6053;SDS011;3055;50.886;14.814;2023-04-06T14:05:46;6.73;;;3.50;;
6053;SDS011;3055;50.886;14.814;2023-04-06T14:08:13;3.93;;;3.50;;
6053;SDS011;3055;50.886;14.814;2023-04-06T14:10:41;4.90;;;3.27;;
6053;SDS011;3055;50.886;14.814;2023-04-06T14:13:08;3.83;;;3.03;;
6053;SDS011;3055;50.886;14.814;2023-04-06T14:15:35;4.67;;;3.40;;
6053;SDS011;3055;50.886;14.814;2023-04-06T14:18:02;3.70;;;2.90;;
6053;SDS011;3055;50.886;14.814;2023-04-06T14:20:30;4.07;;;2.90;;
6053;SDS011;3055;50.886;14.814;2023-04-06T14:23:00;3.53;;;3.00;;
6053;SDS011;3055;50.886;14.814;2023-04-06T14:25:27;3.00;;;2.80;;
6053;SDS011;3055;50.886;14.814;2023-04-06T14:27:56;4.67;;;3.17;;
6053;SDS011;3055;50.886;14.814;2023-04-06T14:30:23;3.80;;;3.23;;
6053;SDS011;3055;50.886;14.814;2023-04-06T14:32:50;3.93;;;3.00;;
6053;SDS011;3055;50.886;14.814;2023-04-06T14:35:17;2.90;;;2.70;;
6053;SDS011;3055;50.886;14.814;2023-04-06T14:37:44;6.27;;;3.47;;
6053;SDS011;3055;50.886;14.814;2023-04-06T14:40:13;3.63;;;3.20;;
6053;SDS011;3055;50.886;14.814;2023-04-06T14:42:40;4.47;;;3.40;;
6053;SDS011;3055;50.886;14.814;2023-04-06T14:45:08;7.37;;;3.40;;
6053;SDS011;3055;50.886;14.814;2023-04-06T14:47:35;4.77;;;4.23;;
6053;SDS011;3055;50.886;14.814;2023-04-06T14:50:02;3.77;;;3.47;;
6053;SDS011;3055;50.886;14.814;2023-04-06T14:52:30;3.47;;;3.17;;
6053;SDS011;3055;50.886;14.814;2023-04-06T14:54:57;4.10;;;3.23;;
6053;SDS011;3055;50.886;14.814;2023-04-06T14:57:26;3.80;;;3.23;;